createdAt,value
2022-07-29T00:01:19.134Z,99322.69
2022-07-29T00:02:53.299Z,99318.25
2022-07-29T00:04:26.717Z,99323.88
2022-07-29T00:05:59.318Z,99323.50
2022-07-29T00:07:34.146Z,99314.31
2022-07-29T00:09:08.001Z,99329.75
2022-07-29T00:10:41.297Z,99333.16
2022-07-29T00:12:14.557Z,99333.44
2022-07-29T00:13:54.811Z,99335.84
2022-07-29T00:15:29.797Z,99340.97
2022-07-29T00:17:02.049Z,99330.47
2022-07-29T00:18:35.359Z,99333.91
2022-07-29T00:20:10.146Z,99333.91
2022-07-29T00:21:43.665Z,99323.13
2022-07-29T00:23:17.002Z,99323.38
2022-07-29T00:24:50.833Z,99324.47
2022-07-29T00:26:24.197Z,99316.94
2022-07-29T00:27:57.753Z,99319.16
2022-07-29T00:29:33.906Z,99312.53
2022-07-29T00:31:10.018Z,99316.44
2022-07-29T00:32:43.558Z,99324.72
2022-07-29T00:34:30.880Z,99325.50
2022-07-29T00:36:04.403Z,99321.81
2022-07-29T00:37:36.678Z,99316.44
2022-07-29T00:39:09.889Z,99318.38
2022-07-29T00:40:44.103Z,99318.63
2022-07-29T00:42:17.792Z,99315.19
2022-07-29T00:43:51.079Z,99309.94
2022-07-29T00:45:24.606Z,99307.59
2022-07-29T00:46:59.622Z,99310.28
2022-07-29T00:48:32.870Z,99313.56
2022-07-29T00:50:07.575Z,99311.00
2022-07-29T00:51:41.831Z,99299.72
2022-07-29T00:53:15.430Z,99304.00
2022-07-29T00:54:48.809Z,99308.72
2022-07-29T00:56:22.402Z,99306.41
2022-07-29T00:57:57.251Z,99311.78
2022-07-29T00:59:34.874Z,99316.06
2022-07-29T01:01:08.718Z,99312.38
2022-07-29T01:02:42.411Z,99321.19
2022-07-29T01:04:16.224Z,99313.38
2022-07-29T01:05:52.000Z,99314.78
2022-07-29T01:07:25.702Z,99304.63
2022-07-29T01:09:00.063Z,99309.44
2022-07-29T01:10:34.241Z,99303.03
2022-07-29T01:12:08.259Z,99317.44
2022-07-29T01:13:42.472Z,99313.75
2022-07-29T01:15:15.921Z,99305.59
2022-07-29T01:16:54.247Z,99304.94
2022-07-29T01:18:37.092Z,99310.13
2022-07-29T01:20:18.873Z,99306.56
2022-07-29T01:21:56.971Z,99302.38
2022-07-29T01:23:50.545Z,99297.13
2022-07-29T01:25:57.572Z,99287.03
2022-07-29T01:27:43.936Z,99290.44
2022-07-29T01:29:38.896Z,99301.38
2022-07-29T01:31:24.986Z,99308.72
2022-07-29T01:33:05.304Z,99305.06
2022-07-29T01:34:44.659Z,99306.25
2022-07-29T01:36:24.863Z,99302.69
2022-07-29T01:38:03.342Z,99305.25
2022-07-29T01:39:39.723Z,99308.72
2022-07-29T01:41:17.351Z,99306.75
2022-07-29T01:42:53.814Z,99306.97
2022-07-29T01:44:35.220Z,99301.31
2022-07-29T01:46:14.137Z,99292.66
2022-07-29T01:47:52.946Z,99293.47
2022-07-29T01:49:30.388Z,99295.22
2022-07-29T01:51:07.995Z,99292.66
2022-07-29T01:52:47.371Z,99298.34
2022-07-29T01:54:26.014Z,99290.28
2022-07-29T01:56:03.806Z,99288.38
2022-07-29T01:57:40.662Z,99288.13
2022-07-29T01:59:14.617Z,99287.28
2022-07-29T02:00:52.139Z,99289.22
2022-07-29T02:02:26.872Z,99284.94
2022-07-29T02:04:04.467Z,99288.59
2022-07-29T02:05:40.161Z,99278.28
2022-07-29T02:07:18.049Z,99285.13
2022-07-29T02:08:52.464Z,99287.09
2022-07-29T02:10:31.645Z,99294.16
2022-07-29T02:12:06.936Z,99291.38
2022-07-29T02:13:42.305Z,99289.25
2022-07-29T02:15:15.762Z,99280.25
2022-07-29T02:16:54.563Z,99285.81
2022-07-29T02:18:30.822Z,99290.09
2022-07-29T02:20:06.116Z,99287.31
2022-07-29T02:21:42.018Z,99299.53
2022-07-29T02:23:20.882Z,99296.75
2022-07-29T02:24:55.963Z,99292.47
2022-07-29T02:26:30.286Z,99293.56
2022-07-29T02:28:05.881Z,99295.59
2022-07-29T02:29:41.883Z,99294.84
2022-07-29T02:31:17.145Z,99291.19
2022-07-29T02:32:53.571Z,99291.31
2022-07-29T02:34:27.830Z,99283.16
2022-07-29T02:36:02.355Z,99296.56
2022-07-29T02:37:37.537Z,99296.78
2022-07-29T02:39:12.298Z,99294.31
2022-07-29T02:40:46.440Z,99295.91
2022-07-29T02:42:21.081Z,99295.06
2022-07-29T02:43:57.105Z,99281.78
2022-07-29T02:45:31.525Z,99295.94
2022-07-29T02:47:12.682Z,99295.94
2022-07-29T02:48:51.898Z,99298.09
2022-07-29T02:50:34.833Z,99292.94
2022-07-29T02:52:14.706Z,99309.50
2022-07-29T02:53:53.640Z,99278.69
2022-07-29T02:55:31.932Z,99297.00
2022-07-29T02:57:11.239Z,99296.38
2022-07-29T02:58:51.799Z,99309.56
2022-07-29T03:00:27.827Z,99308.38
2022-07-29T03:02:02.736Z,99308.19
2022-07-29T03:03:38.909Z,99306.22
2022-07-29T03:05:21.844Z,99290.34
2022-07-29T03:06:55.612Z,99308.53
2022-07-29T03:08:28.864Z,99302.81
2022-07-29T03:10:03.530Z,99314.28
2022-07-29T03:11:42.170Z,99312.47
2022-07-29T03:13:20.937Z,99311.38
2022-07-29T03:14:55.335Z,99325.00
2022-07-29T03:16:28.789Z,99317.94
2022-07-29T03:18:02.731Z,99325.00
2022-07-29T03:19:36.625Z,99325.66
2022-07-29T03:21:11.641Z,99319.25
2022-07-29T03:22:48.428Z,99329.75
2022-07-29T03:24:32.950Z,99336.31
2022-07-29T03:26:06.736Z,99339.84
2022-07-29T03:27:39.380Z,99336.31
2022-07-29T03:29:13.512Z,99345.09
2022-07-29T03:30:47.476Z,99343.91
2022-07-29T03:32:23.802Z,99338.44
2022-07-29T03:33:58.537Z,99338.22
2022-07-29T03:35:32.700Z,99328.56
2022-07-29T03:37:08.170Z,99349.56
2022-07-29T03:38:43.884Z,99351.09
2022-07-29T03:40:21.971Z,99345.75
2022-07-29T03:41:59.089Z,99351.09
2022-07-29T03:43:34.398Z,99353.78
2022-07-29T03:45:12.402Z,99356.22
2022-07-29T03:46:47.810Z,99361.38
2022-07-29T03:48:24.335Z,99357.50
2022-07-29T03:50:04.205Z,99365.84
2022-07-29T03:51:37.809Z,99353.41
2022-07-29T03:53:13.251Z,99361.34
2022-07-29T03:54:46.926Z,99370.44
2022-07-29T03:56:23.891Z,99366.22
2022-07-29T03:57:59.463Z,99369.22
2022-07-29T03:59:35.203Z,99364.03
2022-07-29T04:01:08.607Z,99363.84
2022-07-29T04:02:42.192Z,99358.00
2022-07-29T04:04:15.744Z,99359.47
2022-07-29T04:06:00.535Z,99362.69
2022-07-29T04:07:33.868Z,99362.22
2022-07-29T04:09:09.827Z,99369.06
2022-07-29T04:10:43.828Z,99358.31
2022-07-29T04:12:17.109Z,99362.22
2022-07-29T04:13:50.304Z,99362.09
2022-07-29T04:15:23.718Z,99354.69
2022-07-29T04:16:56.364Z,99371.53
2022-07-29T04:18:29.670Z,99361.31
2022-07-29T04:20:03.071Z,99355.69
2022-07-29T04:21:39.941Z,99364.03
2022-07-29T04:23:13.517Z,99356.00
2022-07-29T04:24:47.262Z,99343.53
2022-07-29T04:26:21.878Z,99370.34
2022-07-29T04:28:04.434Z,99372.69
2022-07-29T04:29:37.827Z,99357.63
2022-07-29T04:31:30.762Z,99364.47
2022-07-29T04:33:05.793Z,99367.88
2022-07-29T04:34:39.296Z,99365.19
2022-07-29T04:36:28.533Z,99360.78
2022-07-29T04:38:03.925Z,99357.00
2022-07-29T04:39:37.211Z,99364.59
2022-07-29T04:41:11.905Z,99357.88
2022-07-29T04:42:48.018Z,99369.38
2022-07-29T04:44:28.638Z,99365.25
2022-07-29T04:46:02.521Z,99361.34
2022-07-29T04:47:35.917Z,99367.91
2022-07-29T04:49:09.542Z,99377.88
2022-07-29T04:50:42.563Z,99366.78
2022-07-29T04:52:15.845Z,99373.00
2022-07-29T04:53:49.191Z,99364.03
2022-07-29T04:55:22.465Z,99371.31
2022-07-29T04:56:56.253Z,99367.44
2022-07-29T04:58:29.737Z,99358.13
2022-07-29T05:00:03.270Z,99362.81
2022-07-29T05:01:36.740Z,99365.16
2022-07-29T05:03:10.221Z,99352.09
2022-07-29T05:04:42.593Z,99346.38
2022-07-29T05:06:15.969Z,99348.06
2022-07-29T05:07:49.302Z,99341.78
2022-07-29T05:09:22.847Z,99346.81
2022-07-29T05:10:56.157Z,99342.59
2022-07-29T05:12:29.824Z,99338.69
2022-07-29T05:14:03.177Z,99336.28
2022-07-29T05:15:37.844Z,99318.56
2022-07-29T05:17:10.223Z,99318.25
2022-07-29T05:18:43.501Z,99321.75
2022-07-29T05:20:16.846Z,99312.75
2022-07-29T05:21:50.283Z,99316.00
2022-07-29T05:23:23.531Z,99311.63
2022-07-29T05:24:56.750Z,99310.28
2022-07-29T05:26:30.086Z,99314.47
2022-07-29T05:28:05.510Z,99309.78
2022-07-29T05:29:43.794Z,99302.69
2022-07-29T05:31:18.863Z,99315.03
2022-07-29T05:32:52.273Z,99301.81
2022-07-29T05:34:26.174Z,99306.56
2022-07-29T05:36:00.864Z,99301.84
2022-07-29T05:37:35.300Z,99297.28
2022-07-29T05:39:08.488Z,99290.88
2022-07-29T05:40:42.294Z,99296.50
2022-07-29T05:42:15.550Z,99289.69
2022-07-29T05:43:50.211Z,99295.81
2022-07-29T05:45:24.522Z,99294.28
2022-07-29T05:46:58.075Z,99295.47
2022-07-29T05:48:31.382Z,99283.56
2022-07-29T05:50:05.387Z,99282.72
2022-07-29T05:51:38.746Z,99287.81
2022-07-29T05:53:19.404Z,99286.59
2022-07-29T05:54:53.774Z,99286.94
2022-07-29T05:56:27.499Z,99285.50
2022-07-29T05:58:00.789Z,99291.16
2022-07-29T05:59:36.932Z,99283.03
2022-07-29T06:01:10.271Z,99269.81
2022-07-29T06:02:43.596Z,99268.97
2022-07-29T06:04:17.180Z,99274.97
2022-07-29T06:05:50.734Z,99271.44
2022-07-29T06:07:24.045Z,99274.09
2022-07-29T06:08:57.352Z,99271.84
2022-07-29T06:10:30.733Z,99260.22
2022-07-29T06:12:05.194Z,99269.94
2022-07-29T06:13:38.398Z,99266.72
2022-07-29T06:15:13.258Z,99266.19
2022-07-29T06:16:46.895Z,99258.16
2022-07-29T06:18:21.985Z,99267.56
2022-07-29T06:19:55.250Z,99266.41
2022-07-29T06:21:28.611Z,99259.69
2022-07-29T06:23:01.981Z,99254.63
2022-07-29T06:24:35.643Z,99261.34
2022-07-29T06:26:09.877Z,99258.16
2022-07-29T06:27:43.133Z,99257.34
2022-07-29T06:29:16.331Z,99244.44
2022-07-29T06:30:51.357Z,99254.41
2022-07-29T06:32:27.381Z,99250.59
2022-07-29T06:34:00.806Z,99254.00
2022-07-29T06:35:38.947Z,99257.56
2022-07-29T06:37:16.068Z,99248.25
2022-07-29T06:38:51.305Z,99251.28
2022-07-29T06:40:42.738Z,99246.00
2022-07-29T06:42:16.440Z,99240.31
2022-07-29T06:43:51.029Z,99237.25
2022-07-29T06:45:27.682Z,99235.75
2022-07-29T06:47:03.244Z,99231.53
2022-07-29T06:48:38.353Z,99232.81
2022-07-29T06:50:13.515Z,99232.22
2022-07-29T06:51:46.757Z,99239.59
2022-07-29T06:53:20.044Z,99233.59
2022-07-29T06:54:53.580Z,99229.59
2022-07-29T06:56:27.216Z,99237.50
2022-07-29T06:57:59.386Z,99239.34
2022-07-29T06:59:35.839Z,99238.22
2022-07-29T07:01:09.863Z,99235.50
2022-07-29T07:02:44.725Z,99240.09
2022-07-29T07:04:18.559Z,99231.50
2022-07-29T07:05:51.061Z,99238.78
2022-07-29T07:07:24.326Z,99230.78
2022-07-29T07:08:57.903Z,99238.38
2022-07-29T07:10:31.222Z,99237.09
2022-07-29T07:12:04.740Z,99235.25
2022-07-29T07:13:38.117Z,99232.50
2022-07-29T07:15:12.129Z,99232.09
2022-07-29T07:16:45.515Z,99219.91
2022-07-29T07:18:20.394Z,99235.16
2022-07-29T07:19:53.925Z,99226.91
2022-07-29T07:21:30.222Z,99221.22
2022-07-29T07:23:04.310Z,99233.69
2022-07-29T07:24:37.585Z,99229.28
2022-07-29T07:26:11.870Z,99223.78
2022-07-29T07:27:45.474Z,99224.63
2022-07-29T07:29:18.704Z,99231.84
2022-07-29T07:30:51.993Z,99222.53
2022-07-29T07:32:25.401Z,99227.19
2022-07-29T07:34:00.418Z,99227.38
2022-07-29T07:35:33.999Z,99218.25
2022-07-29T07:37:07.827Z,99218.41
2022-07-29T07:38:41.311Z,99224.47
2022-07-29T07:40:18.528Z,99219.78
2022-07-29T07:41:52.252Z,99213.69
2022-07-29T07:43:25.513Z,99216.06
2022-07-29T07:45:13.122Z,99213.59
2022-07-29T07:46:47.442Z,99208.13
2022-07-29T07:48:20.819Z,99214.91
2022-07-29T07:49:55.567Z,99208.16
2022-07-29T07:51:28.821Z,99210.22
2022-07-29T07:53:03.211Z,99205.53
2022-07-29T07:54:37.048Z,99196.59
2022-07-29T07:56:12.258Z,99208.38
2022-07-29T07:57:46.403Z,99196.50
2022-07-29T07:59:19.926Z,99213.94
2022-07-29T08:00:53.258Z,99205.41
2022-07-29T08:02:26.763Z,99199.97
2022-07-29T08:04:00.239Z,99197.63
2022-07-29T08:05:35.158Z,99205.19
2022-07-29T08:07:12.713Z,99199.19
2022-07-29T08:08:48.790Z,99197.09
2022-07-29T08:10:36.651Z,99195.81
2022-07-29T08:12:10.315Z,99202.59
2022-07-29T08:13:44.173Z,99197.09
2022-07-29T08:15:17.469Z,99203.97
2022-07-29T08:16:51.096Z,99191.09
2022-07-29T08:18:24.330Z,99196.72
2022-07-29T08:19:57.654Z,99192.41
2022-07-29T08:21:32.311Z,99185.97
2022-07-29T08:23:07.202Z,99188.59
2022-07-29T08:24:45.347Z,99181.84
2022-07-29T08:26:18.900Z,99188.84
2022-07-29T08:27:52.221Z,99182.00
2022-07-29T08:29:25.558Z,99181.38
2022-07-29T08:30:59.140Z,99176.00
2022-07-29T08:32:52.467Z,99187.19
2022-07-29T08:34:27.863Z,99178.00
2022-07-29T08:36:01.884Z,99174.63
2022-07-29T08:37:36.591Z,99185.66
2022-07-29T08:39:10.301Z,99174.03
2022-07-29T08:40:43.611Z,99173.94
2022-07-29T08:42:18.216Z,99175.84
2022-07-29T08:43:53.132Z,99179.94
2022-07-29T08:45:27.628Z,99164.66
2022-07-29T08:47:01.210Z,99164.78
2022-07-29T08:48:35.891Z,99169.97
2022-07-29T08:50:10.536Z,99167.44
2022-07-29T08:51:49.212Z,99168.53
2022-07-29T08:53:28.303Z,99168.13
2022-07-29T08:55:02.243Z,99167.56
2022-07-29T08:56:36.357Z,99170.97
2022-07-29T08:58:10.927Z,99169.31
2022-07-29T08:59:47.287Z,99170.25
2022-07-29T09:01:36.580Z,99164.88
2022-07-29T09:03:19.507Z,99171.06
2022-07-29T09:04:53.018Z,99160.81
2022-07-29T09:06:28.974Z,99157.06
2022-07-29T09:08:03.239Z,99151.81
2022-07-29T09:09:40.550Z,99148.06
2022-07-29T09:11:14.680Z,99152.28
2022-07-29T09:12:49.824Z,99145.84
2022-07-29T09:14:23.184Z,99153.44
2022-07-29T09:15:56.578Z,99150.19
2022-07-29T09:17:51.726Z,99150.88
2022-07-29T09:19:27.996Z,99138.50
2022-07-29T09:21:18.562Z,99146.75
2022-07-29T09:22:54.195Z,99150.63
2022-07-29T09:24:30.112Z,99135.72
2022-07-29T09:26:08.031Z,99145.75
2022-07-29T09:27:41.463Z,99145.94
2022-07-29T09:29:16.667Z,99137.59
2022-07-29T09:30:54.353Z,99135.34
2022-07-29T09:32:29.135Z,99134.03
2022-07-29T09:34:01.528Z,99124.19
2022-07-29T09:35:34.859Z,99124.44
2022-07-29T09:37:08.265Z,99127.94
2022-07-29T09:38:42.103Z,99124.53
2022-07-29T09:40:17.991Z,99117.03
2022-07-29T09:41:54.333Z,99118.66
2022-07-29T09:43:27.860Z,99109.38
2022-07-29T09:45:01.384Z,99118.53
2022-07-29T09:46:34.661Z,99107.13
2022-07-29T09:48:16.988Z,99103.00
2022-07-29T09:49:55.592Z,99105.91
2022-07-29T09:51:38.301Z,99104.75
2022-07-29T09:53:12.787Z,99106.19
2022-07-29T09:54:47.106Z,99108.22
2022-07-29T09:56:20.430Z,99106.81
2022-07-29T09:57:55.463Z,99099.09
2022-07-29T09:59:29.333Z,99101.44
2022-07-29T10:01:02.748Z,99109.63
2022-07-29T10:02:38.185Z,99096.84
2022-07-29T10:04:11.826Z,99101.03
2022-07-29T10:05:46.113Z,99095.19
2022-07-29T10:07:19.412Z,99096.75
2022-07-29T10:08:53.479Z,99095.59
2022-07-29T10:10:28.287Z,99097.56
2022-07-29T10:12:10.285Z,99083.44
2022-07-29T10:13:46.439Z,99086.72
2022-07-29T10:15:20.300Z,99090.25
2022-07-29T10:16:53.682Z,99093.75
2022-07-29T10:18:27.032Z,99091.81
2022-07-29T10:20:00.359Z,99090.31
2022-07-29T10:21:36.630Z,99083.66
2022-07-29T10:23:11.225Z,99076.13
2022-07-29T10:24:44.583Z,99084.63
2022-07-29T10:26:18.646Z,99077.59
2022-07-29T10:27:53.354Z,99064.38
2022-07-29T10:29:32.378Z,99070.03
2022-07-29T10:31:08.714Z,99069.38
2022-07-29T10:33:08.862Z,99063.06
2022-07-29T10:35:00.039Z,99064.66
2022-07-29T10:36:47.709Z,99061.09
2022-07-29T10:38:45.790Z,99060.91
2022-07-29T10:40:45.898Z,99056.66
2022-07-29T10:42:33.949Z,99052.56
2022-07-29T10:44:17.106Z,99050.94
2022-07-29T10:46:02.219Z,99045.34
2022-07-29T10:47:35.749Z,99049.09
2022-07-29T10:49:11.898Z,99052.72
2022-07-29T10:50:56.410Z,99047.06
2022-07-29T10:53:08.822Z,99048.06
2022-07-29T10:54:48.878Z,99054.06
2022-07-29T10:56:30.124Z,99053.00
2022-07-29T10:58:18.236Z,99050.25
2022-07-29T11:00:14.305Z,99043.06
2022-07-29T11:05:59.833Z,99040.75
2022-07-29T11:07:46.096Z,99035.59
2022-07-29T11:09:25.855Z,99044.00
2022-07-29T11:11:43.757Z,99046.66
2022-07-29T11:13:57.417Z,99034.28
2022-07-29T11:15:31.734Z,99034.00
2022-07-29T11:17:09.185Z,99027.97
2022-07-29T11:19:15.887Z,99028.56
2022-07-29T11:21:00.847Z,99025.28
2022-07-29T11:22:35.246Z,99031.72
2022-07-29T11:24:14.895Z,99016.88
2022-07-29T11:26:23.004Z,99034.56
2022-07-29T11:28:11.131Z,99017.19
2022-07-29T11:29:55.602Z,99024.06
2022-07-29T11:31:38.191Z,99015.22
2022-07-29T11:33:54.446Z,99018.66
2022-07-29T11:37:28.081Z,99018.97
2022-07-29T11:39:36.695Z,99013.38
2022-07-29T11:41:27.551Z,99013.53
2022-07-29T11:43:01.325Z,99009.56
2022-07-29T11:44:59.135Z,99009.84
2022-07-29T11:46:50.161Z,99009.56
2022-07-29T11:48:32.183Z,99010.78
2022-07-29T11:50:10.258Z,99003.09
2022-07-29T11:51:48.542Z,98992.44
2022-07-29T11:53:22.959Z,98995.22
2022-07-29T11:55:00.825Z,98991.00
2022-07-29T11:56:47.625Z,98985.84
2022-07-29T12:00:25.889Z,98995.22
2022-07-29T12:04:06.811Z,98987.78
2022-07-29T12:05:48.304Z,98988.03
2022-07-29T12:07:01.567Z,99019.91
2022-07-29T12:07:34.987Z,98985.25
2022-07-29T12:09:11.334Z,98981.91
2022-07-29T12:10:49.108Z,98981.13
2022-07-29T12:12:22.878Z,98981.56
2022-07-29T12:13:58.161Z,98980.03
2022-07-29T12:15:46.286Z,98977.44
2022-07-29T12:17:38.569Z,98977.66
2022-07-29T12:19:13.372Z,98966.41
2022-07-29T12:20:47.723Z,98964.44
2022-07-29T12:22:28.200Z,98959.53
2022-07-29T12:24:08.786Z,98959.44
2022-07-29T12:25:45.541Z,98962.78
2022-07-29T12:27:29.382Z,98967.84
2022-07-29T12:29:03.858Z,98964.63
2022-07-29T12:30:42.542Z,98956.38
2022-07-29T12:32:19.839Z,98955.69
2022-07-29T12:33:55.644Z,98952.09
2022-07-29T12:35:33.336Z,98952.88
2022-07-29T12:37:10.604Z,98946.88
2022-07-29T12:38:44.299Z,98949.38
2022-07-29T12:40:19.185Z,98952.25
2022-07-29T12:41:52.576Z,98949.59
2022-07-29T12:43:37.655Z,98954.44
2022-07-29T12:45:11.485Z,98939.38
2022-07-29T12:46:47.647Z,98946.28
2022-07-29T12:48:35.424Z,98939.50
2022-07-29T12:50:15.611Z,98951.81
2022-07-29T12:51:50.494Z,98934.34
2022-07-29T12:53:23.888Z,98933.03
2022-07-29T12:54:57.502Z,98922.38
2022-07-29T12:56:42.862Z,98931.28
2022-07-29T12:58:29.319Z,98922.38
2022-07-29T13:00:06.581Z,98932.97
2022-07-29T13:01:39.935Z,98939.38
2022-07-29T13:03:13.208Z,98938.94
2022-07-29T13:04:58.177Z,98936.00
2022-07-29T13:06:46.177Z,98927.53
2022-07-29T13:08:26.327Z,98931.28
2022-07-29T13:10:13.990Z,98916.88
2022-07-29T13:11:48.984Z,98918.31
2022-07-29T13:13:22.310Z,98926.44
2022-07-29T13:14:55.567Z,98927.00
2022-07-29T13:16:29.443Z,98915.53
2022-07-29T13:18:03.114Z,98921.47
2022-07-29T13:19:41.272Z,98916.56
2022-07-29T13:21:16.221Z,98896.19
2022-07-29T13:22:50.541Z,98912.72
2022-07-29T13:24:25.348Z,98919.06
2022-07-29T13:26:07.724Z,98910.41
2022-07-29T13:27:42.282Z,98901.69
2022-07-29T13:29:15.754Z,98905.84
2022-07-29T13:30:49.450Z,98907.06
2022-07-29T13:32:28.436Z,98907.25
2022-07-29T13:34:02.363Z,98900.66
2022-07-29T13:35:40.120Z,98901.75
2022-07-29T13:37:12.686Z,98895.16
2022-07-29T13:38:46.152Z,98893.25
2022-07-29T13:40:21.445Z,98895.16
2022-07-29T13:41:55.199Z,98887.00
2022-07-29T13:43:29.804Z,98889.13
2022-07-29T13:45:03.477Z,98896.19
2022-07-29T13:46:36.822Z,98886.59
2022-07-29T13:48:13.586Z,98886.38
2022-07-29T13:49:47.514Z,98886.72
2022-07-29T13:51:20.907Z,98882.91
2022-07-29T13:52:54.259Z,98879.97
2022-07-29T13:54:27.724Z,98883.81
2022-07-29T13:56:02.461Z,98880.59
2022-07-29T13:57:36.526Z,98878.06
2022-07-29T13:59:09.938Z,98878.69
2022-07-29T14:00:47.650Z,98882.13
2022-07-29T14:02:20.999Z,98868.16
2022-07-29T14:03:54.389Z,98884.25
2022-07-29T14:05:29.496Z,98871.97
2022-07-29T14:07:03.799Z,98874.78
2022-07-29T14:08:37.438Z,98878.91
2022-07-29T14:10:11.352Z,98878.91
2022-07-29T14:11:46.851Z,98881.03
2022-07-29T14:13:25.391Z,98875.53
2022-07-29T14:14:59.714Z,98868.44
2022-07-29T14:16:33.124Z,98876.63
2022-07-29T14:18:06.516Z,98871.38
2022-07-29T14:19:40.176Z,98873.06
2022-07-29T14:21:14.238Z,98863.13
2022-07-29T14:22:47.507Z,98872.59
2022-07-29T14:24:22.924Z,98869.94
2022-07-29T14:25:57.212Z,98865.78
2022-07-29T14:27:37.940Z,98870.97
2022-07-29T14:29:11.848Z,98869.34
2022-07-29T14:30:45.354Z,98873.19
2022-07-29T14:32:18.753Z,98873.63
2022-07-29T14:33:52.589Z,98881.47
2022-07-29T14:35:26.056Z,98875.44
2022-07-29T14:36:59.863Z,98869.91
2022-07-29T14:38:33.129Z,98869.72
2022-07-29T14:40:08.015Z,98871.25
2022-07-29T14:41:41.340Z,98871.69
2022-07-29T14:43:16.032Z,98865.75
2022-07-29T14:44:50.344Z,98866.53
2022-07-29T14:46:24.115Z,98865.22
2022-07-29T14:47:57.651Z,98862.25
2022-07-29T14:49:31.585Z,98871.09
2022-07-29T14:51:05.233Z,98852.06
2022-07-29T14:52:38.916Z,98867.19
2022-07-29T14:54:12.302Z,98870.59
2022-07-29T14:55:46.703Z,98855.75
2022-07-29T14:57:20.873Z,98871.38
2022-07-29T14:58:56.505Z,98867.09
2022-07-29T15:00:33.245Z,98861.13
2022-07-29T15:02:06.592Z,98855.59
2022-07-29T15:03:40.064Z,98856.66
2022-07-29T15:05:13.752Z,98862.34
2022-07-29T15:06:47.108Z,98850.09
2022-07-29T15:08:20.534Z,98863.41
2022-07-29T15:09:58.018Z,98863.25
2022-07-29T15:11:33.458Z,98861.56
2022-07-29T15:13:11.542Z,98859.91
2022-07-29T15:14:46.133Z,98859.91
2022-07-29T15:16:19.610Z,98859.13
2022-07-29T15:17:53.284Z,98860.03
2022-07-29T15:19:26.734Z,98863.50
2022-07-29T15:21:01.476Z,98866.47
2022-07-29T15:22:34.806Z,98865.97
2022-07-29T15:24:09.563Z,98871.47
2022-07-29T15:25:42.745Z,98869.81
2022-07-29T15:27:16.123Z,98864.16
2022-07-29T15:28:49.394Z,98868.44
2022-07-29T15:30:32.435Z,98869.44
2022-07-29T15:32:08.070Z,98864.16
2022-07-29T15:33:41.818Z,98866.91
2022-07-29T15:35:15.236Z,98864.75
2022-07-29T15:36:52.410Z,98870.25
2022-07-29T15:38:28.904Z,98858.66
2022-07-29T15:40:02.634Z,98862.69
2022-07-29T15:41:36.237Z,98870.38
2022-07-29T15:43:10.087Z,98867.44
2022-07-29T15:44:43.314Z,98867.44
2022-07-29T15:46:37.465Z,98860.69
2022-07-29T15:48:14.853Z,98862.41
2022-07-29T15:49:49.524Z,98858.22
2022-07-29T15:51:22.911Z,98861.38
2022-07-29T15:52:56.178Z,98863.28
2022-07-29T15:54:30.176Z,98859.47
2022-07-29T15:56:03.501Z,98848.72
2022-07-29T15:57:36.896Z,98855.19
2022-07-29T15:59:10.168Z,98852.19
2022-07-29T16:00:55.603Z,98860.75
2022-07-29T16:02:30.305Z,98858.50
2022-07-29T16:04:03.665Z,98858.34
2022-07-29T16:05:37.265Z,98857.09
2022-07-29T16:07:10.981Z,98858.84
2022-07-29T16:08:44.338Z,98858.03
2022-07-29T16:10:17.567Z,98858.91
2022-07-29T16:11:51.086Z,98851.75
2022-07-29T16:13:24.629Z,98852.22
2022-07-29T16:14:58.562Z,98858.16
2022-07-29T16:16:31.997Z,98856.94
2022-07-29T16:18:08.117Z,98863.31
2022-07-29T16:19:43.194Z,98863.34
2022-07-29T16:21:16.484Z,98859.13
2022-07-29T16:22:49.716Z,98859.97
2022-07-29T16:24:24.048Z,98862.09
2022-07-29T16:25:59.968Z,98864.88
2022-07-29T16:27:37.687Z,98857.69
2022-07-29T16:29:11.327Z,98862.78
2022-07-29T16:30:44.706Z,98860.94
2022-07-29T16:32:22.321Z,98856.72
2022-07-29T16:33:57.349Z,98863.94
2022-07-29T16:35:39.113Z,98863.16
2022-07-29T16:37:13.361Z,98863.78
2022-07-29T16:38:47.599Z,98861.88
2022-07-29T16:40:20.978Z,98862.13
2022-07-29T16:41:59.547Z,98860.84
2022-07-29T16:43:33.683Z,98865.53
2022-07-29T16:45:07.869Z,98867.88
2022-07-29T16:46:41.511Z,98857.31
2022-07-29T16:48:15.208Z,98865.78
2022-07-29T16:49:52.995Z,98872.97
2022-07-29T16:51:26.560Z,98872.94
2022-07-29T16:53:00.445Z,98857.31
2022-07-29T16:54:33.618Z,98872.31
2022-07-29T16:56:07.427Z,98867.91
2022-07-29T16:57:45.569Z,98868.34
2022-07-29T16:59:18.913Z,98864.09
2022-07-29T17:00:52.486Z,98877.81
2022-07-29T17:02:25.842Z,98881.41
2022-07-29T17:04:08.236Z,98877.41
2022-07-29T17:05:52.258Z,98864.91
2022-07-29T17:07:27.520Z,98874.41
2022-07-29T17:09:01.246Z,98881.97
2022-07-29T17:10:34.875Z,98873.97
2022-07-29T17:12:08.545Z,98871.63
2022-07-29T17:13:41.840Z,98878.59
2022-07-29T17:15:16.792Z,98879.59
2022-07-29T17:16:51.644Z,98877.03
2022-07-29T17:18:34.123Z,98873.22
2022-07-29T17:20:09.531Z,98881.22
2022-07-29T17:21:49.195Z,98881.22
2022-07-29T17:23:22.661Z,98881.59
2022-07-29T17:24:55.950Z,98883.25
2022-07-29T17:26:29.281Z,98882.81
2022-07-29T17:28:02.683Z,98889.53
2022-07-29T17:29:35.320Z,98879.41
2022-07-29T17:31:08.840Z,98887.38
2022-07-29T17:32:42.132Z,98881.00
2022-07-29T17:34:15.776Z,98881.59
2022-07-29T17:36:07.305Z,98882.63
2022-07-29T17:37:42.021Z,98885.94
2022-07-29T17:39:15.226Z,98885.91
2022-07-29T17:40:48.486Z,98896.38
2022-07-29T17:42:21.891Z,98902.44
2022-07-29T17:43:55.918Z,98887.03
2022-07-29T17:45:49.589Z,98887.41
2022-07-29T17:47:23.026Z,98895.38
2022-07-29T17:48:57.911Z,98894.09
2022-07-29T17:50:31.163Z,98884.72
2022-07-29T17:52:04.868Z,98890.72
2022-07-29T17:53:39.942Z,98878.09
2022-07-29T17:55:13.393Z,98888.78
2022-07-29T17:56:46.658Z,98889.00
2022-07-29T17:58:20.172Z,98889.34
2022-07-29T17:59:53.735Z,98890.53
2022-07-29T18:01:26.946Z,98890.19
2022-07-29T18:03:00.243Z,98889.94
2022-07-29T18:04:33.857Z,98887.34
2022-07-29T18:06:07.517Z,98890.19
2022-07-29T18:07:41.073Z,98893.84
2022-07-29T18:09:15.990Z,98889.53
2022-07-29T18:10:49.399Z,98898.66
2022-07-29T18:12:23.025Z,98900.72
2022-07-29T18:13:56.287Z,98900.47
2022-07-29T18:15:29.606Z,98904.50
2022-07-29T18:17:02.905Z,98908.28
2022-07-29T18:18:36.846Z,98921.94
2022-07-29T18:20:11.571Z,98913.66
2022-07-29T18:21:53.879Z,98906.78
2022-07-29T18:23:29.052Z,98916.38
2022-07-29T18:25:03.776Z,98917.16
2022-07-29T18:26:37.040Z,98922.09
2022-07-29T18:28:10.375Z,98920.69
2022-07-29T18:29:43.668Z,98932.34
2022-07-29T18:31:24.817Z,98934.63
2022-07-29T18:33:20.293Z,98933.84
2022-07-29T18:34:51.551Z,98932.63
2022-07-29T18:36:24.875Z,98938.72
2022-07-29T18:38:01.498Z,98940.78
2022-07-29T18:39:36.121Z,98946.63
2022-07-29T18:41:11.512Z,98943.03
2022-07-29T18:42:44.735Z,98942.84
2022-07-29T18:44:18.428Z,98936.25
2022-07-29T18:45:51.738Z,98946.63
2022-07-29T18:47:32.238Z,98944.31
2022-07-29T18:49:05.868Z,98949.75
2022-07-29T18:50:39.220Z,98946.72
2022-07-29T18:52:12.525Z,98948.78
2022-07-29T18:53:45.825Z,98953.38
2022-07-29T18:55:19.156Z,98950.63
2022-07-29T18:56:53.773Z,98959.09
2022-07-29T18:58:27.207Z,98948.06
2022-07-29T19:00:00.580Z,98959.16
2022-07-29T19:01:34.033Z,98963.94